Time;durP1;ratioP1;P1;durP2;ratioP2;P2;SDS_P1;SDS_P2;PMS_P1;PMS_P2;Temp;Humidity;BMP_temperature;BMP_pressure;BME280_temperature;BME280_humidity;BME280_pressure;Samples;Min_cycle;Max_cycle;Signal;HPM_P1;HPM_P2
2023/09/16 00:00:25;;;;;;;;;;;;;;;;;;5079808;28;19912;-63
2023/09/16 00:02:51;;;;;;;;;;;;;;;;;;5096335;28;19912;-63
2023/09/16 00:05:17;;;;;;;;;;;;;;;;;;5086917;28;19985;-63
2023/09/16 00:07:43;;;;;;;;;;;;;;;;;;5058659;28;19912;-63
2023/09/16 00:10:08;;;;;;;;;;;;;;;;;;5076776;28;19981;-63
2023/09/16 00:12:33;;;;;;;;;;;;;;;;;;5095997;28;19912;-63
2023/09/16 00:14:58;;;;;;;;;;;;;;;;;;5072241;28;19958;-62
2023/09/16 00:17:24;;;;;;;;;;;;;;;;;;5075830;28;19972;-63
2023/09/16 00:19:50;;;;;;;;;;;;;;;;;;5075803;28;19913;-62
2023/09/16 00:22:16;;;;;;;;;;;;;;;;;;5093587;28;19935;-64
2023/09/16 00:24:42;;;;;;;;;;;;;;;;;;5095616;28;19920;-63
2023/09/16 00:27:07;;;;;;;;;;;;;;;;;;5095694;28;19976;-63
2023/09/16 00:29:33;;;;;;;;;;;;;;;;;;5095683;28;19913;-63
2023/09/16 00:31:59;;;;;;;;;;;;;;;;;;5080264;28;19917;-63
2023/09/16 00:34:24;;;;;;;;;;;;;;;;;;5075496;28;19917;-62
2023/09/16 00:36:49;;;;;;;;;;;;;;;;;;5058086;28;19913;-63
2023/09/16 00:39:15;;;;;;;;;;;;;;;;;;5058171;28;19948;-63
2023/09/16 00:41:41;;;;;;;;;;;;;;;;;;5058117;28;19917;-63
2023/09/16 00:44:06;;;;;;;;;;;;;;;;;;5058186;28;19917;-62
2023/09/16 00:46:31;;;;;;;;;;;;;;;;;;5075523;28;19912;-63
2023/09/16 00:48:56;;;;;;;;;;;;;;;;;;5075441;28;19917;-63
2023/09/16 00:51:22;;;;;;;;;;;;;;;;;;5084687;28;19955;-62
2023/09/16 00:53:48;;;;;;;;;;;;;;;;;;5077989;28;19923;-62
2023/09/16 00:56:14;;;;;;;;;;;;;;;;;;5080451;28;19913;-62
2023/09/16 00:58:40;;;;;;;;;;;;;;;;;;5075449;28;19988;-63
2023/09/16 01:01:06;;;;;;;;;;;;;;;;;;5082001;28;19920;-63
2023/09/16 01:03:31;;;;;;;;;;;;;;;;;;5077967;28;19921;-63
2023/09/16 01:05:57;;;;;;;;;;;;;;;;;;5049078;28;19912;-64
2023/09/16 01:08:23;;;;;;;;;;;;;;;;;;5075170;28;19913;-63
2023/09/16 01:10:48;;;;;;;;;;;;;;;;;;5079084;28;19912;-64
2023/09/16 01:13:15;;;;;;;;;;;;;;;;;;5095253;28;19912;-61
2023/09/16 01:15:41;;;;;;;;;;;;;;;;;;5077576;28;19942;-63
2023/09/16 01:18:06;;;;;;;;;;;;;;;;;;5095219;28;19921;-62
2023/09/16 01:20:31;;;;;;;;;;;;;;;;;;5076574;28;19917;-63
2023/09/16 01:22:56;;;;;;;;;;;;;;;;;;5075318;28;19931;-62
2023/09/16 01:25:22;;;;;;;;;;;;;;;;;;5075076;28;19913;-62
2023/09/16 01:27:48;;;;;;;;;;;;;;;;;;5075150;28;19934;-61
2023/09/16 01:30:13;;;;;;;;;;;;;;;;;;5057463;28;19913;-64
2023/09/16 01:32:43;;;;;;;;;;;;;;;;;;5094190;28;19955;-62
2023/09/16 01:35:08;;;;;;;;;;;;;;;;;;5099155;28;19913;-59
2023/09/16 01:37:34;;;;;;;;;;;;;;;;;;5081952;28;19912;-60
2023/09/16 01:39:59;;;;;;;;;;;;;;;;;;5099607;28;19912;-62
2023/09/16 01:42:25;;;;;;;;;;;;;;;;;;5065761;28;19916;-63
2023/09/16 01:44:50;;;;;;;;;;;;;;;;;;5063080;28;19913;-63
2023/09/16 01:47:16;;;;;;;;;;;;;;;;;;5081306;28;19995;-63
2023/09/16 01:49:41;;;;;;;;;;;;;;;;;;5081283;28;19912;-62
2023/09/16 01:52:07;;;;;;;;;;;;;;;;;;5098547;28;19912;-62
2023/09/16 01:54:32;;;;;;;;;;;;;;;;;;5098501;28;19920;-63
2023/09/16 01:56:58;;;;;;;;;;;;;;;;;;5098482;28;19916;-62
2023/09/16 01:59:23;;;;;;;;;;;;;;;;;;5081089;28;19920;-63
2023/09/16 02:01:49;;;;;;;;;;;;;;;;;;5070914;28;19913;-62
2023/09/16 02:04:14;;;;;;;;;;;;;;;;;;5060853;28;19980;-62
2023/09/16 02:06:41;;;;;;;;;;;;;;;;;;5060982;28;19919;-62
2023/09/16 02:09:07;;;;;;;;;;;;;;;;;;5060850;28;19916;-63
2023/09/16 02:11:32;;;;;;;;;;;;;;;;;;5085502;28;19913;-63
2023/09/16 02:13:58;;;;;;;;;;;;;;;;;;5080701;28;19916;-63
2023/09/16 02:16:24;;;;;;;;;;;;;;;;;;5080406;28;19912;-63
2023/09/16 02:18:50;;;;;;;;;;;;;;;;;;5116603;28;19916;-63
2023/09/16 02:21:16;;;;;;;;;;;;;;;;;;5117551;28;19920;-63
2023/09/16 02:23:42;;;;;;;;;;;;;;;;;;5118404;28;19934;-62
2023/09/16 02:26:08;;;;;;;;;;;;;;;;;;5118259;28;19912;-62
2023/09/16 02:28:33;;;;;;;;;;;;;;;;;;5117505;28;19972;-62
2023/09/16 02:30:59;;;;;;;;;;;;;;;;;;5115975;28;19912;-63
2023/09/16 02:33:24;;;;;;;;;;;;;;;;;;5096999;28;19920;-62
2023/09/16 02:35:50;;;;;;;;;;;;;;;;;;5097899;28;19923;-63
2023/09/16 02:38:15;;;;;;;;;;;;;;;;;;5097887;28;19932;-63
2023/09/16 02:40:41;;;;;;;;;;;;;;;;;;5096877;28;19984;-62
2023/09/16 02:43:08;;;;;;;;;;;;;;;;;;5116087;28;19995;-63
2023/09/16 02:45:33;;;;;;;;;;;;;;;;;;5115654;28;19919;-62
2023/09/16 02:47:59;;;;;;;;;;;;;;;;;;5117169;28;19919;-62
2023/09/16 02:50:25;;;;;;;;;;;;;;;;;;5117934;28;19912;-63
2023/09/16 02:52:50;;;;;;;;;;;;;;;;;;5101706;28;19917;-62
2023/09/16 02:55:16;;;;;;;;;;;;;;;;;;5096607;28;20016;-62
2023/09/16 02:57:43;;;;;;;;;;;;;;;;;;5096852;28;19912;-62
2023/09/16 03:00:08;;;;;;;;;;;;;;;;;;5096816;28;19912;-62
2023/09/16 03:02:33;;;;;;;;;;;;;;;;;;5109942;28;19979;-62
2023/09/16 03:04:59;;;;;;;;;;;;;;;;;;5115345;28;19912;-62
2023/09/16 03:07:24;;;;;;;;;;;;;;;;;;5079259;28;19917;-62
2023/09/16 03:09:50;;;;;;;;;;;;;;;;;;5076396;28;19912;-62
2023/09/16 03:12:15;;;;;;;;;;;;;;;;;;5113409;28;19912;-62
2023/09/16 03:14:41;;;;;;;;;;;;;;;;;;5105692;28;19920;-61
2023/09/16 03:17:06;;;;;;;;;;;;;;;;;;5111182;28;19920;-62
2023/09/16 03:19:33;;;;;;;;;;;;;;;;;;5116729;28;20007;-62
2023/09/16 03:21:59;;;;;;;;;;;;;;;;;;5109212;28;19931;-63
2023/09/16 03:24:24;;;;;;;;;;;;;;;;;;5095491;28;20006;-62
2023/09/16 03:26:50;;;;;;;;;;;;;;;;;;5107179;28;19934;-62
2023/09/16 03:29:17;;;;;;;;;;;;;;;;;;5117251;28;19912;-63
2023/09/16 03:31:43;;;;;;;;;;;;;;;;;;5111853;28;19912;-63
2023/09/16 03:34:15;;;;;;;;;;;;;;;;;;5095842;28;19916;-62
2023/09/16 03:36:41;;;;;;;;;;;;;;;;;;5105254;28;19923;-63
2023/09/16 03:39:06;;;;;;;;;;;;;;;;;;5116943;28;19972;-63
2023/09/16 03:41:31;;;;;;;;;;;;;;;;;;5113660;28;19912;-64
2023/09/16 03:43:59;;;;;;;;;;;;;;;;;;5095693;28;20009;-63
2023/09/16 03:46:26;;;;;;;;;;;;;;;;;;5095557;28;19912;-62
2023/09/16 03:48:53;;;;;;;;;;;;;;;;;;5095682;28;19923;-62
2023/09/16 03:51:21;;;;;;;;;;;;;;;;;;5096005;28;19946;-62
2023/09/16 03:53:49;;;;;;;;;;;;;;;;;;5115835;28;19931;-62
2023/09/16 03:56:14;;;;;;;;;;;;;;;;;;5115224;28;19908;-62
2023/09/16 03:58:40;;;;;;;;;;;;;;;;;;5115885;28;19912;-63
2023/09/16 04:01:06;;;;;;;;;;;;;;;;;;5116679;28;19998;-63
2023/09/16 04:03:31;;;;;;;;;;;;;;;;;;5115788;28;19911;-63
2023/09/16 04:05:58;;;;;;;;;;;;;;;;;;5115407;28;19916;-63
2023/09/16 04:08:24;;;;;;;;;;;;;;;;;;5108506;28;19922;-62
2023/09/16 04:10:50;;;;;;;;;;;;;;;;;;5084630;28;19913;-62
2023/09/16 04:13:16;;;;;;;;;;;;;;;;;;5107242;28;19912;-62
2023/09/16 04:15:41;;;;;;;;;;;;;;;;;;5098785;28;19936;-63
2023/09/16 04:18:08;;;;;;;;;;;;;;;;;;5087585;28;19917;-62
2023/09/16 04:20:34;;;;;;;;;;;;;;;;;;5075925;28;19920;-62
2023/09/16 04:22:59;;;;;;;;;;;;;;;;;;5088750;28;19912;-62
2023/09/16 04:25:26;;;;;;;;;;;;;;;;;;5078458;28;19896;-62
2023/09/16 04:27:52;;;;;;;;;;;;;;;;;;5061069;28;19913;-62
2023/09/16 04:30:19;;;;;;;;;;;;;;;;;;5058190;28;19952;-62
2023/09/16 04:32:45;;;;;;;;;;;;;;;;;;5068846;28;19913;-62
2023/09/16 04:35:12;;;;;;;;;;;;;;;;;;5078094;28;19917;-63
2023/09/16 04:37:38;;;;;;;;;;;;;;;;;;5061526;28;19912;-62
2023/09/16 04:40:10;;;;;;;;;;;;;;;;;;5077975;28;19916;-62
2023/09/16 04:42:35;;;;;;;;;;;;;;;;;;5069275;28;19948;-62
2023/09/16 04:45:01;;;;;;;;;;;;;;;;;;5091289;28;19951;-62
2023/09/16 04:47:28;;;;;;;;;;;;;;;;;;5091500;28;19912;-63
2023/09/16 04:49:53;;;;;;;;;;;;;;;;;;5058106;28;19913;-62
2023/09/16 04:52:19;;;;;;;;;;;;;;;;;;5063919;28;19913;-62
2023/09/16 04:54:45;;;;;;;;;;;;;;;;;;5077923;28;19916;-62
2023/09/16 04:57:13;;;;;;;;;;;;;;;;;;5077596;28;19913;-63
2023/09/16 04:59:39;;;;;;;;;;;;;;;;;;5078125;28;19936;-62
2023/09/16 05:02:04;;;;;;;;;;;;;;;;;;5074032;28;19913;-62
2023/09/16 05:04:30;;;;;;;;;;;;;;;;;;5057847;28;19908;-61
2023/09/16 05:06:56;;;;;;;;;;;;;;;;;;5057790;28;19948;-61
2023/09/16 05:09:22;;;;;;;;;;;;;;;;;;5061216;28;19913;-62
2023/09/16 05:11:48;;;;;;;;;;;;;;;;;;5062818;28;19944;-62
2023/09/16 05:14:14;;;;;;;;;;;;;;;;;;5081777;28;19924;-62
2023/09/16 05:16:39;;;;;;;;;;;;;;;;;;5081685;28;19912;-62
2023/09/16 05:19:07;;;;;;;;;;;;;;;;;;5081898;28;19996;-62
2023/09/16 05:21:33;;;;;;;;;;;;;;;;;;5078809;28;19917;-63
2023/09/16 05:23:58;;;;;;;;;;;;;;;;;;5113845;28;19942;-62
2023/09/16 05:26:25;;;;;;;;;;;;;;;;;;5078835;28;19920;-61
2023/09/16 05:28:50;;;;;;;;;;;;;;;;;;5061641;28;19913;-62
2023/09/16 05:31:16;;;;;;;;;;;;;;;;;;5078907;28;19945;-62
2023/09/16 05:33:42;;;;;;;;;;;;;;;;;;5060424;28;19924;-62
2023/09/16 05:36:08;;;;;;;;;;;;;;;;;;5094864;28;19940;-62
2023/09/16 05:38:33;;;;;;;;;;;;;;;;;;5080543;28;19917;-61
2023/09/16 05:40:59;;;;;;;;;;;;;;;;;;5066981;28;19966;-62
2023/09/16 05:43:24;;;;;;;;;;;;;;;;;;5107296;28;19976;-62
2023/09/16 05:45:50;;;;;;;;;;;;;;;;;;5081366;28;19980;-62
2023/09/16 05:48:16;;;;;;;;;;;;;;;;;;5064555;28;19913;-62
2023/09/16 05:50:42;;;;;;;;;;;;;;;;;;5061415;28;19920;-62
2023/09/16 05:53:08;;;;;;;;;;;;;;;;;;5088412;28;19920;-62
2023/09/16 05:55:36;;;;;;;;;;;;;;;;;;5080780;28;19975;-62
2023/09/16 05:58:06;;;;;;;;;;;;;;;;;;5083393;28;20003;-62
2023/09/16 06:00:31;;;;;;;;;;;;;;;;;;5094447;28;19916;-61
2023/09/16 06:02:57;;;;;;;;;;;;;;;;;;5068855;28;19938;-60
2023/09/16 06:05:22;;;;;;;;;;;;;;;;;;5080871;28;19975;-60
2023/09/16 06:07:48;;;;;;;;;;;;;;;;;;5068663;28;19935;-60
2023/09/16 06:10:14;;;;;;;;;;;;;;;;;;5060712;28;19913;-63
2023/09/16 06:12:40;;;;;;;;;;;;;;;;;;5083332;28;19956;-61
2023/09/16 06:15:06;;;;;;;;;;;;;;;;;;5080733;28;19917;-62
2023/09/16 06:17:32;;;;;;;;;;;;;;;;;;5085310;28;19980;-61
2023/09/16 06:19:57;;;;;;;;;;;;;;;;;;5098011;28;19912;-62
2023/09/16 06:22:23;;;;;;;;;;;;;;;;;;5100630;28;19913;-62
2023/09/16 06:24:49;;;;;;;;;;;;;;;;;;5117826;28;19912;-62
2023/09/16 06:27:14;;;;;;;;;;;;;;;;;;5110834;28;19936;-62
2023/09/16 06:29:40;;;;;;;;;;;;;;;;;;5097135;28;19912;-63
2023/09/16 06:32:06;;;;;;;;;;;;;;;;;;5097224;28;19924;-62
2023/09/16 06:34:31;;;;;;;;;;;;;;;;;;5117773;28;19928;-63
2023/09/16 06:36:58;;;;;;;;;;;;;;;;;;5096932;28;19920;-63
2023/09/16 06:39:25;;;;;;;;;;;;;;;;;;5097041;28;19912;-62
2023/09/16 06:41:50;;;;;;;;;;;;;;;;;;5096903;28;19924;-62
2023/09/16 06:44:16;;;;;;;;;;;;;;;;;;5114431;28;19912;-64
2023/09/16 06:46:43;;;;;;;;;;;;;;;;;;5117106;28;19941;-62
2023/09/16 06:49:08;;;;;;;;;;;;;;;;;;5118074;28;19920;-63
2023/09/16 06:51:34;;;;;;;;;;;;;;;;;;5118018;28;19975;-62
2023/09/16 06:53:59;;;;;;;;;;;;;;;;;;5103037;28;19927;-62
2023/09/16 06:56:25;;;;;;;;;;;;;;;;;;5097533;28;19919;-63
2023/09/16 06:58:50;;;;;;;;;;;;;;;;;;5098491;28;19950;-63
2023/09/16 07:01:16;;;;;;;;;;;;;;;;;;5116853;28;19912;-64
2023/09/16 07:03:41;;;;;;;;;;;;;;;;;;5105123;28;19975;-62
2023/09/16 07:06:07;;;;;;;;;;;;;;;;;;5097624;28;19916;-63
2023/09/16 07:08:32;;;;;;;;;;;;;;;;;;5111826;28;19912;-63
2023/09/16 07:10:57;;;;;;;;;;;;;;;;;;5117646;28;19916;-63
2023/09/16 07:13:23;;;;;;;;;;;;;;;;;;5108469;28;19920;-62
2023/09/16 07:15:48;;;;;;;;;;;;;;;;;;5097252;28;19913;-64
2023/09/16 07:18:14;;;;;;;;;;;;;;;;;;5070959;28;19917;-63
2023/09/16 07:20:39;;;;;;;;;;;;;;;;;;5056964;28;19913;-63
2023/09/16 07:23:05;;;;;;;;;;;;;;;;;;5065896;28;19951;-63
2023/09/16 07:25:30;;;;;;;;;;;;;;;;;;5096925;28;19916;-63
2023/09/16 07:27:56;;;;;;;;;;;;;;;;;;5096710;28;20003;-62
2023/09/16 07:30:21;;;;;;;;;;;;;;;;;;5095879;28;19912;-62
2023/09/16 07:32:47;;;;;;;;;;;;;;;;;;5095430;28;19917;-62
2023/09/16 07:35:13;;;;;;;;;;;;;;;;;;5076429;28;19916;-63
2023/09/16 07:37:39;;;;;;;;;;;;;;;;;;5081285;28;19948;-63
2023/09/16 07:40:05;;;;;;;;;;;;;;;;;;5096661;28;19942;-64
2023/09/16 07:42:32;;;;;;;;;;;;;;;;;;5096664;28;19980;-63
2023/09/16 07:44:57;;;;;;;;;;;;;;;;;;5078587;28;19916;-63
2023/09/16 07:47:23;;;;;;;;;;;;;;;;;;5078654;28;19987;-63
2023/09/16 07:49:48;;;;;;;;;;;;;;;;;;5096505;28;19912;-63
2023/09/16 07:52:14;;;;;;;;;;;;;;;;;;5096365;28;19919;-63
2023/09/16 07:54:39;;;;;;;;;;;;;;;;;;5081017;28;19980;-63
2023/09/16 07:57:05;;;;;;;;;;;;;;;;;;5076206;28;19913;-63
2023/09/16 07:59:30;;;;;;;;;;;;;;;;;;5076170;28;19920;-63
2023/09/16 08:01:56;;;;;;;;;;;;;;;;;;5075952;28;19927;-63
2023/09/16 08:04:21;;;;;;;;;;;;;;;;;;5087677;28;19920;-63
2023/09/16 08:06:49;;;;;;;;;;;;;;;;;;5096039;28;19956;-63
2023/09/16 08:09:15;;;;;;;;;;;;;;;;;;5063275;28;19909;-64
2023/09/16 08:11:41;;;;;;;;;;;;;;;;;;5076043;28;19924;-63
2023/09/16 08:14:06;;;;;;;;;;;;;;;;;;5084733;28;19987;-64
2023/09/16 08:16:31;;;;;;;;;;;;;;;;;;5095853;28;19912;-63
2023/09/16 08:18:57;;;;;;;;;;;;;;;;;;5083548;28;19955;-62
2023/09/16 08:21:23;;;;;;;;;;;;;;;;;;5075707;28;19924;-63
2023/09/16 08:23:48;;;;;;;;;;;;;;;;;;5063492;28;20046;-63
2023/09/16 08:26:14;;;;;;;;;;;;;;;;;;5078284;28;19979;-64
2023/09/16 08:28:39;;;;;;;;;;;;;;;;;;5095803;28;19913;-63
2023/09/16 08:31:05;;;;;;;;;;;;;;;;;;5095793;28;19944;-63
2023/09/16 08:33:30;;;;;;;;;;;;;;;;;;5055957;28;19916;-63
2023/09/16 08:35:56;;;;;;;;;;;;;;;;;;5074977;28;19920;-63
2023/09/16 08:38:21;;;;;;;;;;;;;;;;;;5074607;28;19981;-63
2023/09/16 08:40:47;;;;;;;;;;;;;;;;;;5074869;28;19916;-63
2023/09/16 08:43:12;;;;;;;;;;;;;;;;;;5074922;28;19913;-64
2023/09/16 08:45:37;;;;;;;;;;;;;;;;;;5074759;28;19916;-63
2023/09/16 08:48:03;;;;;;;;;;;;;;;;;;5078089;28;19920;-63
2023/09/16 08:50:28;;;;;;;;;;;;;;;;;;5074925;28;19912;-65
2023/09/16 08:52:54;;;;;;;;;;;;;;;;;;5074713;28;19920;-64
2023/09/16 08:55:19;;;;;;;;;;;;;;;;;;5076474;28;19987;-64
2023/09/16 08:57:45;;;;;;;;;;;;;;;;;;5074537;28;19912;-63
2023/09/16 09:00:11;;;;;;;;;;;;;;;;;;5074619;28;19984;-63
2023/09/16 09:02:36;;;;;;;;;;;;;;;;;;5057326;28;19913;-64
2023/09/16 09:05:01;;;;;;;;;;;;;;;;;;5084491;28;19936;-64
2023/09/16 09:07:27;;;;;;;;;;;;;;;;;;5074447;28;19920;-63
2023/09/16 09:09:52;;;;;;;;;;;;;;;;;;5074703;28;19919;-64
2023/09/16 09:12:18;;;;;;;;;;;;;;;;;;5074555;28;19917;-64
2023/09/16 09:14:43;;;;;;;;;;;;;;;;;;5074571;28;19921;-63
2023/09/16 09:17:09;;;;;;;;;;;;;;;;;;5074516;28;19921;-63
2023/09/16 09:19:34;;;;;;;;;;;;;;;;;;5074546;28;19963;-64
2023/09/16 09:22:00;;;;;;;;;;;;;;;;;;5074402;28;19968;-64
2023/09/16 09:24:25;;;;;;;;;;;;;;;;;;5076457;28;19912;-64
2023/09/16 09:26:51;;;;;;;;;;;;;;;;;;5074323;28;19913;-64
2023/09/16 09:29:16;;;;;;;;;;;;;;;;;;5074102;28;19912;-63
2023/09/16 09:31:42;;;;;;;;;;;;;;;;;;5074258;28;19932;-64
2023/09/16 09:34:07;;;;;;;;;;;;;;;;;;5074425;28;19921;-63
2023/09/16 09:36:34;;;;;;;;;;;;;;;;;;5074198;28;19945;-62
2023/09/16 09:39:00;;;;;;;;;;;;;;;;;;5074332;28;19924;-64
2023/09/16 09:41:25;;;;;;;;;;;;;;;;;;5074073;28;19984;-63
2023/09/16 09:43:52;;;;;;;;;;;;;;;;;;5074204;28;19913;-64
2023/09/16 09:46:18;;;;;;;;;;;;;;;;;;5074444;28;19916;-64
2023/09/16 09:48:43;;;;;;;;;;;;;;;;;;5074351;28;19952;-64
2023/09/16 09:51:09;;;;;;;;;;;;;;;;;;5074380;28;20053;-63
2023/09/16 09:53:34;;;;;;;;;;;;;;;;;;5074380;28;19917;-64
2023/09/16 09:56:00;;;;;;;;;;;;;;;;;;5079919;28;20116;-64
2023/09/16 09:58:25;;;;;;;;;;;;;;;;;;5077619;28;19923;-64
2023/09/16 10:00:50;;;;;;;;;;;;;;;;;;5077548;28;19920;-65
2023/09/16 10:03:16;;;;;;;;;;;;;;;;;;5077505;28;19912;-65
2023/09/16 10:05:42;;;;;;;;;;;;;;;;;;5079485;28;19916;-64
2023/09/16 10:08:07;;;;;;;;;;;;;;;;;;5077605;28;19989;-65
2023/09/16 10:10:33;;;;;;;;;;;;;;;;;;5077786;28;19923;-64
2023/09/16 10:12:58;;;;;;;;;;;;;;;;;;5077433;28;19917;-64
2023/09/16 10:15:24;;;;;;;;;;;;;;;;;;5078372;28;19917;-64
2023/09/16 10:17:49;;;;;;;;;;;;;;;;;;5077590;28;19924;-64
2023/09/16 10:20:14;;;;;;;;;;;;;;;;;;5080324;28;19916;-65
2023/09/16 10:22:40;;;;;;;;;;;;;;;;;;5077482;28;19935;-64
2023/09/16 10:25:05;;;;;;;;;;;;;;;;;;5092311;28;19913;-64
2023/09/16 10:27:31;;;;;;;;;;;;;;;;;;5097317;28;19947;-63
2023/09/16 10:29:56;;;;;;;;;;;;;;;;;;5084025;28;19913;-62
2023/09/16 10:32:21;;;;;;;;;;;;;;;;;;5097925;28;19955;-61
2023/09/16 10:34:47;;;;;;;;;;;;;;;;;;5095654;28;19921;-62
2023/09/16 10:37:13;;;;;;;;;;;;;;;;;;5077666;28;19912;-63
2023/09/16 10:39:38;;;;;;;;;;;;;;;;;;5077901;28;19941;-63
2023/09/16 10:42:04;;;;;;;;;;;;;;;;;;5077691;28;19912;-62
2023/09/16 10:44:30;;;;;;;;;;;;;;;;;;5060109;28;19916;-63
2023/09/16 10:46:56;;;;;;;;;;;;;;;;;;5096353;28;19919;-64
2023/09/16 10:49:21;;;;;;;;;;;;;;;;;;5097406;28;19912;-63
2023/09/16 10:51:47;;;;;;;;;;;;;;;;;;5092742;28;20141;-62
2023/09/16 10:54:12;;;;;;;;;;;;;;;;;;5076799;28;19917;-64
2023/09/16 10:56:38;;;;;;;;;;;;;;;;;;5078234;28;19952;-62
2023/09/16 10:59:03;;;;;;;;;;;;;;;;;;5075992;28;19912;-62
2023/09/16 11:01:30;;;;;;;;;;;;;;;;;;5079563;28;19927;-63
2023/09/16 11:03:56;;;;;;;;;;;;;;;;;;5083899;28;19913;-62
2023/09/16 11:06:21;;;;;;;;;;;;;;;;;;5075732;28;19996;-62
2023/09/16 11:08:47;;;;;;;;;;;;;;;;;;5076646;28;19934;-63
2023/09/16 11:11:12;;;;;;;;;;;;;;;;;;5061441;28;19913;-64
2023/09/16 11:13:38;;;;;;;;;;;;;;;;;;5076471;28;19932;-63
2023/09/16 11:16:03;;;;;;;;;;;;;;;;;;5078957;28;19944;-62
2023/09/16 11:18:28;;;;;;;;;;;;;;;;;;5076431;28;19940;-63
2023/09/16 11:20:54;;;;;;;;;;;;;;;;;;5074440;28;19923;-64
2023/09/16 11:23:19;;;;;;;;;;;;;;;;;;5057871;28;19923;-63
2023/09/16 11:25:45;;;;;;;;;;;;;;;;;;5077850;28;19913;-62
2023/09/16 11:28:11;;;;;;;;;;;;;;;;;;5075033;28;19917;-63
2023/09/16 11:30:36;;;;;;;;;;;;;;;;;;5076046;28;19913;-62
2023/09/16 11:33:05;;;;;;;;;;;;;;;;;;5075552;28;19913;-62
2023/09/16 11:35:32;;;;;;;;;;;;;;;;;;5076861;28;21367;-62
2023/09/16 11:37:57;;;;;;;;;;;;;;;;;;5058563;28;19917;-63
2023/09/16 11:40:22;;;;;;;;;;;;;;;;;;5076189;28;19913;-65
2023/09/16 11:42:48;;;;;;;;;;;;;;;;;;5075480;28;19968;-64
2023/09/16 11:45:13;;;;;;;;;;;;;;;;;;5076605;28;19913;-65
2023/09/16 11:47:38;;;;;;;;;;;;;;;;;;5077247;28;19966;-64
2023/09/16 11:50:04;;;;;;;;;;;;;;;;;;5058543;28;19912;-64
2023/09/16 11:52:29;;;;;;;;;;;;;;;;;;5058567;28;19931;-64
2023/09/16 11:54:55;;;;;;;;;;;;;;;;;;5075942;28;19917;-64
2023/09/16 11:57:20;;;;;;;;;;;;;;;;;;5075841;28;19913;-65
2023/09/16 11:59:46;;;;;;;;;;;;;;;;;;5075241;28;19919;-65
2023/09/16 12:02:12;;;;;;;;;;;;;;;;;;5075707;28;19951;-64
2023/09/16 12:04:37;;;;;;;;;;;;;;;;;;5075674;28;19923;-64
2023/09/16 12:07:02;;;;;;;;;;;;;;;;;;5077023;28;19912;-65
2023/09/16 12:09:27;;;;;;;;;;;;;;;;;;5075977;28;19917;-62
2023/09/16 12:11:53;;;;;;;;;;;;;;;;;;5088310;28;19966;-63
2023/09/16 12:14:18;;;;;;;;;;;;;;;;;;5081454;28;19980;-63
2023/09/16 12:16:44;;;;;;;;;;;;;;;;;;5066020;28;19913;-61
2023/09/16 12:19:09;;;;;;;;;;;;;;;;;;5075836;28;19916;-64
2023/09/16 12:21:35;;;;;;;;;;;;;;;;;;5075938;28;19935;-63
2023/09/16 12:24:00;;;;;;;;;;;;;;;;;;5075716;28;19950;-64
2023/09/16 12:26:26;;;;;;;;;;;;;;;;;;5083251;28;19948;-66
2023/09/16 12:28:51;;;;;;;;;;;;;;;;;;5083907;28;19909;-63
2023/09/16 12:31:17;;;;;;;;;;;;;;;;;;5075246;28;19923;-64
2023/09/16 12:33:44;;;;;;;;;;;;;;;;;;5074747;28;19919;-64
2023/09/16 12:36:09;;;;;;;;;;;;;;;;;;5062071;28;19927;-65
2023/09/16 12:38:35;;;;;;;;;;;;;;;;;;5094729;28;19938;-65
2023/09/16 12:41:00;;;;;;;;;;;;;;;;;;5093134;28;19912;-65
2023/09/16 12:43:26;;;;;;;;;;;;;;;;;;5075251;28;19913;-65
2023/09/16 12:45:52;;;;;;;;;;;;;;;;;;5077172;28;19992;-64
2023/09/16 12:48:18;;;;;;;;;;;;;;;;;;5095523;28;19917;-64
2023/09/16 12:50:43;;;;;;;;;;;;;;;;;;5095343;28;19917;-65
2023/09/16 12:53:09;;;;;;;;;;;;;;;;;;5094984;28;19919;-64
2023/09/16 12:55:34;;;;;;;;;;;;;;;;;;5087179;28;19939;-64
2023/09/16 12:58:00;;;;;;;;;;;;;;;;;;5092599;28;19916;-65
2023/09/16 13:00:28;;;;;;;;;;;;;;;;;;5078264;28;19919;-65
2023/09/16 13:02:54;;;;;;;;;;;;;;;;;;5075111;28;19913;-65
2023/09/16 13:05:19;;;;;;;;;;;;;;;;;;5074986;28;19984;-66
2023/09/16 13:07:45;;;;;;;;;;;;;;;;;;5086999;28;19913;-66
2023/09/16 13:10:11;;;;;;;;;;;;;;;;;;5072106;28;19916;-65
2023/09/16 13:12:36;;;;;;;;;;;;;;;;;;5060148;28;19956;-64
2023/09/16 13:15:01;;;;;;;;;;;;;;;;;;5049505;28;19943;-63
2023/09/16 13:17:26;;;;;;;;;;;;;;;;;;5071978;28;19924;-64
2023/09/16 13:19:52;;;;;;;;;;;;;;;;;;5070956;28;19943;-64
2023/09/16 13:22:18;;;;;;;;;;;;;;;;;;5075432;28;19921;-65
2023/09/16 13:24:44;;;;;;;;;;;;;;;;;;5067035;28;19937;-63
2023/09/16 13:27:10;;;;;;;;;;;;;;;;;;5072421;28;19913;-65
2023/09/16 13:29:35;;;;;;;;;;;;;;;;;;5070539;28;19924;-64
2023/09/16 13:32:00;;;;;;;;;;;;;;;;;;5071604;28;19923;-64
2023/09/16 13:34:25;;;;;;;;;;;;;;;;;;5070799;28;19923;-64
2023/09/16 13:36:51;;;;;;;;;;;;;;;;;;5074103;28;19935;-64
2023/09/16 13:39:17;;;;;;;;;;;;;;;;;;5072815;28;19932;-64
2023/09/16 13:41:42;;;;;;;;;;;;;;;;;;5078563;28;19919;-65
2023/09/16 13:44:08;;;;;;;;;;;;;;;;;;5070955;28;19924;-64
2023/09/16 13:46:33;;;;;;;;;;;;;;;;;;5071453;28;19980;-64
2023/09/16 13:48:58;;;;;;;;;;;;;;;;;;5071539;28;19970;-64
2023/09/16 13:51:24;;;;;;;;;;;;;;;;;;5075627;28;19967;-64
2023/09/16 13:53:50;;;;;;;;;;;;;;;;;;5075170;28;19963;-64
2023/09/16 13:56:16;;;;;;;;;;;;;;;;;;5078288;28;19923;-64
2023/09/16 13:58:41;;;;;;;;;;;;;;;;;;5067758;28;19952;-64
2023/09/16 14:01:07;;;;;;;;;;;;;;;;;;5080710;28;19919;-65
2023/09/16 14:03:32;;;;;;;;;;;;;;;;;;5064888;28;19919;-65
2023/09/16 14:05:57;;;;;;;;;;;;;;;;;;5075453;28;19912;-65
2023/09/16 14:08:22;;;;;;;;;;;;;;;;;;5072536;28;19920;-64
2023/09/16 14:10:47;;;;;;;;;;;;;;;;;;5074319;28;19980;-64
2023/09/16 14:13:13;;;;;;;;;;;;;;;;;;5073119;28;19913;-63
2023/09/16 14:15:38;;;;;;;;;;;;;;;;;;5075838;28;19916;-64
2023/09/16 14:18:04;;;;;;;;;;;;;;;;;;5075343;28;19940;-64
2023/09/16 14:20:32;;;;;;;;;;;;;;;;;;5073272;28;19928;-65
2023/09/16 14:22:58;;;;;;;;;;;;;;;;;;5079851;28;19938;-65
2023/09/16 14:25:23;;;;;;;;;;;;;;;;;;5075263;28;19976;-65
2023/09/16 14:27:49;;;;;;;;;;;;;;;;;;5063679;28;19914;-65
2023/09/16 14:30:16;;;;;;;;;;;;;;;;;;5072654;28;19920;-64
2023/09/16 14:32:42;;;;;;;;;;;;;;;;;;5071588;28;19913;-65
2023/09/16 14:35:08;;;;;;;;;;;;;;;;;;5071149;28;19943;-65
2023/09/16 14:37:33;;;;;;;;;;;;;;;;;;5075707;28;19919;-65
2023/09/16 14:39:59;;;;;;;;;;;;;;;;;;5068025;28;19913;-65
2023/09/16 14:42:25;;;;;;;;;;;;;;;;;;5066863;28;19920;-64
2023/09/16 14:44:50;;;;;;;;;;;;;;;;;;5071599;28;19959;-64
2023/09/16 14:47:15;;;;;;;;;;;;;;;;;;5069485;28;19917;-63
2023/09/16 14:49:41;;;;;;;;;;;;;;;;;;5065251;28;19996;-64
2023/09/16 14:52:07;;;;;;;;;;;;;;;;;;5062451;28;19926;-64
2023/09/16 14:54:32;;;;;;;;;;;;;;;;;;5066333;28;19920;-64
2023/09/16 14:56:58;;;;;;;;;;;;;;;;;;5081384;28;19917;-64
2023/09/16 14:59:25;;;;;;;;;;;;;;;;;;5064877;28;19912;-64
2023/09/16 15:01:51;;;;;;;;;;;;;;;;;;5074012;28;19920;-63
2023/09/16 15:04:19;;;;;;;;;;;;;;;;;;5074528;28;19928;-65
2023/09/16 15:06:44;;;;;;;;;;;;;;;;;;5073940;28;19916;-64
2023/09/16 15:09:09;;;;;;;;;;;;;;;;;;5074448;28;19976;-65
2023/09/16 15:11:35;;;;;;;;;;;;;;;;;;5074745;28;19944;-64
2023/09/16 15:14:00;;;;;;;;;;;;;;;;;;5068785;28;19992;-64
2023/09/16 15:16:25;;;;;;;;;;;;;;;;;;5074710;28;19976;-65
2023/09/16 15:18:51;;;;;;;;;;;;;;;;;;5066547;28;19998;-64
2023/09/16 15:21:16;;;;;;;;;;;;;;;;;;5073851;28;19976;-64
2023/09/16 15:23:41;;;;;;;;;;;;;;;;;;5074057;28;19924;-64
2023/09/16 15:26:07;;;;;;;;;;;;;;;;;;5070899;28;20055;-65
2023/09/16 15:28:32;;;;;;;;;;;;;;;;;;5081003;28;19913;-64
2023/09/16 15:30:57;;;;;;;;;;;;;;;;;;5070154;28;19924;-64
2023/09/16 15:33:24;;;;;;;;;;;;;;;;;;5068458;28;19913;-66
2023/09/16 15:35:49;;;;;;;;;;;;;;;;;;5067688;28;19921;-64
2023/09/16 15:38:15;;;;;;;;;;;;;;;;;;5084851;28;19968;-64
2023/09/16 15:40:40;;;;;;;;;;;;;;;;;;5067103;28;19913;-64
2023/09/16 15:43:06;;;;;;;;;;;;;;;;;;5082290;28;19917;-63
2023/09/16 15:45:31;;;;;;;;;;;;;;;;;;5069834;28;19972;-63
2023/09/16 15:47:57;;;;;;;;;;;;;;;;;;5076314;28;19917;-64
2023/09/16 15:50:23;;;;;;;;;;;;;;;;;;5072714;28;19913;-63
2023/09/16 15:52:49;;;;;;;;;;;;;;;;;;5082031;28;19917;-64
2023/09/16 15:55:16;;;;;;;;;;;;;;;;;;5063172;28;19984;-63
2023/09/16 15:57:43;;;;;;;;;;;;;;;;;;5076670;28;19924;-65
2023/09/16 16:00:09;;;;;;;;;;;;;;;;;;5070709;28;19992;-63
2023/09/16 16:02:36;;;;;;;;;;;;;;;;;;5076903;28;19908;-63
2023/09/16 16:05:04;;;;;;;;;;;;;;;;;;5070615;28;19917;-64
2023/09/16 16:07:29;;;;;;;;;;;;;;;;;;5075820;28;19924;-63
2023/09/16 16:09:54;;;;;;;;;;;;;;;;;;5066125;28;19940;-64
2023/09/16 16:12:20;;;;;;;;;;;;;;;;;;5071569;28;19920;-64
2023/09/16 16:14:45;;;;;;;;;;;;;;;;;;5070586;28;19917;-63
2023/09/16 16:17:11;;;;;;;;;;;;;;;;;;5072903;28;19953;-63
2023/09/16 16:19:36;;;;;;;;;;;;;;;;;;5063547;28;19920;-63
2023/09/16 16:22:03;;;;;;;;;;;;;;;;;;5066782;28;19927;-63
2023/09/16 16:24:28;;;;;;;;;;;;;;;;;;5063878;28;19917;-63
2023/09/16 16:26:53;;;;;;;;;;;;;;;;;;5070918;28;19978;-63
2023/09/16 16:29:20;;;;;;;;;;;;;;;;;;5081691;28;19980;-63
2023/09/16 16:31:46;;;;;;;;;;;;;;;;;;5070382;28;19981;-63
2023/09/16 16:34:11;;;;;;;;;;;;;;;;;;5082690;28;19924;-64